createdAt,value
2019-04-10T00:00:52.999Z,50.20
2019-04-10T00:03:56.754Z,41.00
2019-04-10T00:07:10.452Z,42.43
2019-04-10T00:10:06.394Z,44.63
2019-04-10T00:13:10.095Z,42.27
2019-04-10T00:16:13.940Z,43.30
2019-04-10T00:19:18.271Z,45.00
2019-04-10T00:22:22.265Z,43.17
2019-04-10T00:25:26.553Z,41.87
2019-04-10T00:28:30.046Z,44.07
2019-04-10T00:31:33.875Z,47.63
2019-04-10T00:34:37.915Z,43.13
2019-04-10T00:37:42.840Z,42.20
2019-04-10T00:40:46.350Z,40.27
2019-04-10T00:43:50.965Z,42.57
2019-04-10T00:46:54.813Z,45.63
2019-04-10T00:49:58.398Z,44.20
2019-04-10T00:53:02.910Z,43.47
2019-04-10T00:56:06.494Z,41.50
2019-04-10T00:59:10.286Z,45.63
2019-04-10T01:02:13.914Z,42.03
2019-04-10T01:05:17.437Z,46.47
2019-04-10T01:08:20.943Z,46.67
2019-04-10T01:11:25.219Z,41.77
2019-04-10T01:14:29.652Z,44.00
2019-04-10T01:17:33.352Z,46.20
2019-04-10T01:20:37.762Z,45.60
2019-04-10T01:23:41.460Z,40.67
2019-04-10T01:26:45.515Z,39.93
2019-04-10T01:29:49.596Z,41.50
2019-04-10T01:32:54.346Z,40.93
2019-04-10T01:35:58.462Z,40.37
2019-04-10T01:39:02.218Z,42.90
2019-04-10T01:42:06.183Z,41.47
2019-04-10T01:45:09.805Z,38.93
2019-04-10T01:48:13.328Z,41.93
2019-04-10T01:51:17.195Z,39.30
2019-04-10T01:54:20.701Z,45.07
2019-04-10T01:57:24.225Z,40.77
2019-04-10T02:00:29.848Z,39.30
2019-04-10T02:03:34.096Z,39.73
2019-04-10T02:06:37.891Z,38.80
2019-04-10T02:09:41.483Z,40.60
2019-04-10T02:12:45.156Z,41.63
2019-04-10T02:15:48.713Z,40.17
2019-04-10T02:18:52.197Z,41.10
2019-04-10T02:21:56.107Z,43.20
2019-04-10T02:24:59.730Z,44.20
2019-04-10T02:28:03.296Z,36.80
2019-04-10T02:31:07.116Z,37.13
2019-04-10T02:34:10.723Z,41.30
2019-04-10T02:37:15.463Z,37.07
2019-04-10T02:40:21.315Z,45.43
2019-04-10T02:43:25.068Z,41.27
2019-04-10T02:46:29.287Z,37.13
2019-04-10T02:49:32.925Z,39.27
2019-04-10T02:52:37.098Z,42.43
2019-04-10T02:55:43.075Z,40.53
2019-04-10T02:58:47.152Z,37.00
2019-04-10T03:01:51.840Z,41.83
2019-04-10T03:04:57.112Z,43.67
2019-04-10T03:08:01.080Z,43.47
2019-04-10T03:11:08.615Z,46.30
2019-04-10T03:14:10.634Z,39.87
2019-04-10T03:17:14.250Z,42.93
2019-04-10T03:20:18.412Z,45.43
2019-04-10T03:23:23.180Z,42.40
2019-04-10T03:26:27.819Z,38.83
2019-04-10T03:29:31.660Z,39.33
2019-04-10T03:32:40.749Z,40.23
2019-04-10T03:35:43.738Z,42.47
2019-04-10T03:38:55.283Z,42.57
2019-04-10T03:41:52.623Z,43.10
2019-04-10T03:44:56.969Z,41.70
2019-04-10T03:48:00.460Z,46.90
2019-04-10T03:51:04.012Z,43.63
2019-04-10T03:54:07.577Z,44.50
2019-04-10T03:57:12.067Z,46.63
2019-04-10T04:00:16.186Z,46.93
2019-04-10T04:03:20.425Z,57.73
2019-04-10T04:06:24.052Z,45.37
2019-04-10T04:09:27.521Z,45.53
2019-04-10T04:12:31.075Z,53.77
2019-04-10T04:15:34.521Z,48.87
2019-04-10T04:18:38.023Z,48.87
2019-04-10T04:21:41.826Z,48.97
2019-04-10T04:24:46.134Z,58.57
2019-04-10T04:27:49.703Z,46.13
2019-04-10T04:30:53.847Z,51.00
2019-04-10T04:33:57.714Z,46.77
2019-04-10T04:37:02.354Z,45.77
2019-04-10T04:40:06.030Z,45.90
2019-04-10T04:43:09.541Z,47.17
2019-04-10T04:46:14.057Z,43.50
2019-04-10T04:49:18.187Z,46.10
2019-04-10T04:52:21.704Z,41.87
2019-04-10T04:55:26.085Z,45.23
2019-04-10T04:58:30.506Z,47.93
2019-04-10T05:01:34.062Z,41.97
2019-04-10T05:04:37.558Z,43.37
2019-04-10T05:07:41.766Z,41.07
2019-04-10T05:10:45.392Z,46.67
2019-04-10T05:13:49.079Z,39.07
2019-04-10T05:16:52.636Z,48.87
2019-04-10T05:19:56.141Z,41.00
2019-04-10T05:22:59.904Z,49.90
2019-04-10T05:26:03.516Z,41.50
2019-04-10T05:29:07.004Z,44.03
2019-04-10T05:32:11.414Z,44.23
2019-04-10T05:35:15.207Z,41.30
2019-04-10T05:38:18.820Z,38.23
2019-04-10T05:41:23.271Z,37.60
2019-04-10T05:44:38.896Z,39.53
2019-04-10T05:47:42.385Z,33.30
2019-04-10T05:50:53.845Z,36.23
2019-04-10T05:53:52.673Z,39.93
2019-04-10T05:56:56.183Z,38.73
2019-04-10T06:00:00.546Z,34.27
2019-04-10T06:03:04.161Z,30.13
2019-04-10T06:06:08.365Z,29.57
2019-04-10T06:09:12.273Z,31.43
2019-04-10T06:12:16.054Z,30.13
2019-04-10T06:15:19.653Z,35.57
2019-04-10T06:18:23.117Z,30.27
2019-04-10T06:21:27.287Z,29.07
2019-04-10T06:24:32.166Z,33.47
2019-04-10T06:27:36.751Z,28.73
2019-04-10T06:30:40.335Z,31.10
2019-04-10T06:33:44.425Z,27.80
2019-04-10T06:36:49.323Z,34.53
2019-04-10T06:40:05.121Z,30.17
2019-04-10T06:42:59.318Z,28.33
2019-04-10T06:46:04.199Z,25.03
2019-04-10T06:49:08.102Z,31.47
2019-04-10T06:52:12.707Z,25.50
2019-04-10T06:55:16.182Z,24.47
2019-04-10T06:58:20.127Z,24.20
2019-04-10T07:01:25.528Z,25.17
2019-04-10T07:04:36.239Z,26.70
2019-04-10T07:07:45.504Z,22.80
2019-04-10T07:10:49.951Z,25.20
2019-04-10T07:13:45.314Z,28.23
2019-04-10T07:16:48.862Z,21.37
2019-04-10T07:19:53.260Z,23.77
2019-04-10T07:22:58.250Z,21.90
2019-04-10T07:26:02.007Z,24.00
2019-04-10T07:29:05.774Z,22.97
2019-04-10T07:32:10.939Z,20.13
2019-04-10T07:35:18.326Z,22.07
2019-04-10T07:38:21.249Z,21.40
2019-04-10T07:41:26.395Z,25.90
2019-04-10T07:44:30.658Z,25.07
2019-04-10T07:47:35.633Z,22.37
2019-04-10T07:50:39.137Z,24.37
2019-04-10T07:53:43.572Z,26.83
2019-04-10T07:56:47.318Z,20.97
2019-04-10T07:59:50.899Z,22.40
2019-04-10T08:02:55.339Z,25.20
2019-04-10T08:05:58.954Z,27.57
2019-04-10T08:09:04.040Z,22.73
2019-04-10T08:12:07.880Z,26.37
2019-04-10T08:17:19.948Z,26.23
2019-04-10T08:20:23.999Z,26.30
2019-04-10T08:23:28.200Z,27.77
2019-04-10T08:26:32.528Z,21.20
2019-04-10T08:29:36.496Z,23.97
2019-04-10T08:32:53.377Z,27.53
2019-04-10T08:35:45.814Z,22.43
2019-04-10T08:38:50.777Z,24.27
2019-04-10T08:41:54.891Z,25.67
2019-04-10T08:44:59.235Z,25.50
2019-04-10T08:48:03.605Z,25.60
2019-04-10T08:51:08.611Z,23.63
2019-04-10T08:54:14.062Z,22.27
2019-04-10T08:57:19.275Z,28.30
2019-04-10T09:00:23.241Z,28.60
2019-04-10T09:03:27.063Z,24.67
2019-04-10T09:06:31.519Z,30.80
2019-04-10T09:09:35.336Z,24.67
2019-04-10T09:12:39.229Z,24.53
2019-04-10T09:15:43.056Z,22.37
2019-04-10T09:18:47.652Z,25.60
2019-04-10T09:21:52.010Z,26.33
2019-04-10T09:24:55.984Z,27.53
2019-04-10T09:28:00.223Z,24.70
2019-04-10T09:31:05.139Z,26.00
2019-04-10T09:34:09.659Z,25.73
2019-04-10T09:37:13.586Z,25.60
2019-04-10T09:40:18.324Z,25.13
2019-04-10T09:43:23.120Z,26.00
2019-04-10T09:46:27.019Z,27.27
2019-04-10T09:49:38.229Z,25.40
2019-04-10T09:52:36.309Z,28.87
2019-04-10T09:55:40.496Z,26.77
2019-04-10T09:58:44.797Z,26.03
2019-04-10T10:01:48.678Z,30.50
2019-04-10T10:04:53.500Z,26.53
2019-04-10T10:07:57.990Z,25.50
2019-04-10T10:11:01.926Z,26.80
2019-04-10T10:14:06.145Z,26.20
2019-04-10T10:17:10.635Z,26.53
2019-04-10T10:20:15.436Z,26.03
2019-04-10T10:23:19.995Z,28.13
2019-04-10T10:26:24.031Z,25.10
2019-04-10T10:29:28.114Z,31.20
2019-04-10T10:32:33.036Z,26.73
2019-04-10T10:35:37.018Z,24.47
2019-04-10T10:38:40.887Z,29.77
2019-04-10T10:41:44.745Z,25.83
2019-04-10T10:44:48.567Z,26.43
2019-04-10T10:47:52.655Z,23.83
2019-04-10T10:50:56.727Z,24.23
2019-04-10T10:54:02.708Z,25.67
2019-04-10T10:57:06.967Z,27.03
2019-04-10T11:00:13.314Z,21.63
2019-04-10T11:03:18.174Z,31.07
2019-04-10T11:06:22.674Z,26.03
2019-04-10T11:09:26.611Z,25.57
2019-04-10T11:12:30.517Z,24.40
2019-04-10T11:15:34.424Z,24.73
2019-04-10T11:18:38.361Z,29.90
2019-04-10T11:21:42.915Z,24.63
2019-04-10T11:24:47.128Z,26.10
2019-04-10T11:27:51.615Z,27.17
2019-04-10T11:30:56.165Z,26.90
2019-04-10T11:34:00.287Z,23.53
2019-04-10T11:37:21.550Z,25.47
2019-04-10T11:40:12.454Z,24.97
2019-04-10T11:43:16.652Z,26.40
2019-04-10T11:46:22.500Z,24.20
2019-04-10T11:49:27.699Z,22.90
2019-04-10T11:52:38.648Z,28.77
2019-04-10T11:55:45.058Z,23.37
2019-04-10T11:58:49.450Z,22.13
2019-04-10T12:01:48.953Z,23.00
2019-04-10T12:04:57.639Z,23.10
2019-04-10T12:08:27.468Z,26.83
2019-04-10T12:14:08.649Z,26.27
2019-04-10T12:17:12.474Z,25.40
2019-04-10T12:20:16.710Z,26.00
2019-04-10T12:23:20.942Z,21.07
2019-04-10T12:26:25.516Z,25.20
2019-04-10T12:29:31.251Z,22.90
2019-04-10T12:32:35.518Z,20.83
2019-04-10T12:35:40.331Z,23.67
2019-04-10T12:38:44.597Z,22.03
2019-04-10T12:41:48.495Z,28.53
2019-04-10T12:44:52.426Z,21.80
2019-04-10T12:47:56.548Z,19.47
2019-04-10T12:51:01.385Z,20.77
2019-04-10T12:54:05.644Z,18.53
2019-04-10T12:57:10.555Z,23.30
2019-04-10T13:00:18.127Z,19.97
2019-04-10T13:03:22.963Z,21.23
2019-04-10T13:06:27.122Z,20.10
2019-04-10T13:09:31.763Z,24.27
2019-04-10T13:12:35.734Z,21.60
2019-04-10T13:15:43.453Z,20.13
2019-04-10T13:18:47.559Z,20.00
2019-04-10T13:21:51.633Z,23.03
2019-04-10T13:24:55.774Z,21.47
2019-04-10T13:27:59.595Z,20.73
2019-04-10T13:31:03.613Z,21.10
2019-04-10T13:34:07.420Z,21.43
2019-04-10T13:37:12.330Z,21.40
2019-04-10T13:40:19.432Z,21.77
2019-04-10T13:43:23.695Z,21.83
2019-04-10T13:46:28.898Z,20.37
2019-04-10T13:49:33.777Z,20.20
2019-04-10T13:52:40.460Z,24.10
2019-04-10T13:55:44.468Z,21.17
2019-04-10T13:58:48.778Z,25.00
2019-04-10T14:01:52.673Z,23.13
2019-04-10T14:04:57.445Z,22.43
2019-04-10T14:08:02.110Z,21.00
2019-04-10T14:11:06.034Z,21.57
2019-04-10T14:14:10.605Z,19.87
2019-04-10T14:17:15.036Z,19.40
2019-04-10T14:20:20.377Z,21.37
2019-04-10T14:23:29.486Z,22.07
2019-04-10T14:26:52.729Z,20.83
2019-04-10T14:29:56.711Z,23.87
2019-04-10T14:33:00.847Z,21.43
2019-04-10T14:36:05.569Z,20.33
2019-04-10T14:39:16.762Z,24.57
2019-04-10T14:42:18.302Z,26.47
2019-04-10T14:45:23.522Z,23.57
2019-04-10T14:48:27.891Z,23.73
2019-04-10T14:51:32.588Z,22.40
2019-04-10T14:54:37.550Z,19.00
2019-04-10T14:57:41.792Z,22.83
2019-04-10T15:00:47.174Z,22.03
2019-04-10T15:03:51.024Z,22.87
2019-04-10T15:06:55.592Z,24.37
2019-04-10T15:09:59.600Z,24.03
2019-04-10T15:13:12.109Z,24.10
2019-04-10T15:16:09.174Z,28.77
2019-04-10T15:19:13.154Z,26.83
2019-04-10T15:22:17.821Z,25.37
2019-04-10T15:25:22.919Z,28.23
2019-04-10T15:28:27.447Z,22.47
2019-04-10T15:31:31.357Z,26.80
2019-04-10T15:34:35.425Z,23.80
2019-04-10T15:37:39.535Z,27.27
2019-04-10T15:40:44.047Z,29.33
2019-04-10T15:43:48.014Z,23.53
2019-04-10T15:46:51.855Z,28.03
2019-04-10T15:49:55.680Z,25.63
2019-04-10T15:52:59.958Z,23.93
2019-04-10T15:56:03.757Z,26.00
2019-04-10T15:59:08.102Z,26.90
2019-04-10T16:02:13.176Z,22.90
2019-04-10T16:05:17.491Z,23.13
2019-04-10T16:08:22.114Z,22.77
2019-04-10T16:11:43.848Z,29.33
2019-04-10T16:14:48.619Z,25.80
2019-04-10T16:17:54.691Z,32.77
2019-04-10T16:20:59.894Z,27.03
2019-04-10T16:24:06.642Z,23.70
2019-04-10T16:27:10.503Z,23.90
2019-04-10T16:30:17.227Z,26.60
2019-04-10T16:33:21.164Z,24.80
2019-04-10T16:36:26.330Z,28.87
2019-04-10T16:39:30.420Z,27.73
2019-04-10T16:42:34.845Z,29.63
2019-04-10T16:45:40.452Z,24.93
2019-04-10T16:48:44.415Z,28.63
2019-04-10T16:51:50.412Z,31.37
2019-04-10T16:54:55.543Z,33.03
2019-04-10T16:57:59.661Z,40.03
2019-04-10T17:01:04.350Z,31.50
2019-04-10T17:04:09.085Z,34.33
2019-04-10T17:07:13.341Z,37.13
2019-04-10T17:10:23.872Z,34.40
2019-04-10T17:13:24.603Z,40.63
2019-04-10T17:16:29.418Z,34.47
2019-04-10T17:19:45.615Z,33.23
2019-04-10T17:22:43.817Z,31.90
2019-04-10T17:25:44.537Z,31.17
2019-04-10T17:28:48.458Z,40.57
2019-04-10T17:31:52.996Z,29.03
2019-04-10T17:34:57.174Z,36.53
2019-04-10T17:38:02.330Z,34.30
2019-04-10T17:41:07.168Z,37.20
2019-04-10T17:44:11.718Z,34.70
2019-04-10T17:47:16.591Z,28.90
2019-04-10T17:50:22.372Z,32.43
2019-04-10T17:53:26.428Z,34.03
2019-04-10T17:56:30.484Z,37.43
2019-04-10T17:59:34.650Z,34.33
2019-04-10T18:02:41.001Z,30.70
2019-04-10T18:05:45.293Z,30.93
2019-04-10T18:08:49.338Z,33.10
2019-04-10T18:11:54.042Z,33.60
2019-04-10T18:14:58.184Z,35.20
2019-04-10T18:18:03.088Z,40.50
2019-04-10T18:21:07.253Z,34.13
2019-04-10T18:24:12.367Z,30.93
2019-04-10T18:27:16.405Z,31.97
2019-04-10T18:30:20.415Z,34.47
2019-04-10T18:33:24.543Z,41.00
2019-04-10T18:36:28.473Z,36.47
2019-04-10T18:39:32.588Z,35.17
2019-04-10T18:42:37.323Z,40.13
2019-04-10T18:45:53.957Z,39.00
2019-04-10T18:48:48.553Z,37.17
2019-04-10T18:51:54.312Z,35.93
2019-04-10T18:54:58.526Z,38.73
2019-04-10T18:58:03.974Z,39.07
2019-04-10T19:01:13.902Z,42.33
2019-04-10T19:04:20.446Z,38.00
2019-04-10T19:07:25.115Z,40.00
2019-04-10T19:10:29.047Z,34.37
2019-04-10T19:13:32.903Z,36.83
2019-04-10T19:16:37.413Z,36.60
2019-04-10T19:19:42.381Z,39.97
2019-04-10T19:22:48.587Z,42.83
2019-04-10T19:25:52.649Z,39.13
2019-04-10T19:28:57.131Z,41.97
2019-04-10T19:32:03.415Z,41.77
2019-04-10T19:35:08.196Z,39.33
2019-04-10T19:38:12.065Z,45.53
2019-04-10T19:41:25.231Z,38.60
2019-04-10T19:44:21.397Z,44.20
2019-04-10T19:47:26.324Z,39.30
2019-04-10T19:50:30.286Z,41.10
2019-04-10T19:53:35.274Z,43.17
2019-04-10T19:56:40.398Z,41.47
2019-04-10T19:59:44.409Z,40.37
2019-04-10T20:02:49.023Z,41.47
2019-04-10T20:05:53.456Z,47.17
2019-04-10T20:08:57.880Z,41.93
2019-04-10T20:12:02.451Z,41.97
2019-04-10T20:15:10.061Z,44.27
2019-04-10T20:18:14.686Z,41.77
2019-04-10T20:21:19.634Z,48.63
2019-04-10T20:24:23.545Z,45.53
2019-04-10T20:27:27.799Z,42.63
2019-04-10T20:30:33.155Z,40.83
2019-04-10T20:33:36.985Z,38.73
2019-04-10T20:36:41.599Z,36.43
2019-04-10T20:39:47.450Z,34.43
2019-04-10T20:42:51.406Z,39.03
2019-04-10T20:45:55.935Z,46.40
2019-04-10T20:49:00.573Z,39.10
2019-04-10T20:52:04.759Z,40.60
2019-04-10T20:55:09.128Z,44.37
2019-04-10T20:58:13.406Z,37.00
2019-04-10T21:01:17.288Z,39.27
2019-04-10T21:04:21.327Z,43.93
2019-04-10T21:07:25.563Z,31.60
2019-04-10T21:10:29.469Z,40.30
2019-04-10T21:13:34.063Z,34.90
2019-04-10T21:16:37.964Z,34.33
2019-04-10T21:19:43.076Z,35.70
2019-04-10T21:22:47.277Z,35.33
2019-04-10T21:25:51.870Z,35.10
2019-04-10T21:28:55.836Z,34.93
2019-04-10T21:32:01.377Z,38.37
2019-04-10T21:35:07.806Z,39.07
2019-04-10T21:38:11.734Z,38.13
2019-04-10T21:41:16.688Z,32.50
2019-04-10T21:44:20.675Z,38.73
2019-04-10T21:47:25.602Z,42.07
2019-04-10T21:50:29.556Z,36.17
2019-04-10T21:53:34.441Z,35.23
2019-04-10T21:56:38.905Z,34.43
2019-04-10T21:59:43.139Z,36.27
2019-04-10T22:02:48.432Z,39.40
2019-04-10T22:05:53.964Z,36.40
2019-04-10T22:09:01.920Z,34.80
2019-04-10T22:12:23.972Z,38.20
2019-04-10T22:15:20.389Z,39.53
2019-04-10T22:18:25.239Z,39.03
2019-04-10T22:21:29.212Z,36.50
2019-04-10T22:24:34.089Z,39.73
2019-04-10T22:27:37.934Z,39.73
2019-04-10T22:30:41.835Z,40.50
2019-04-10T22:33:46.589Z,36.20
2019-04-10T22:36:50.619Z,35.50
2019-04-10T22:39:54.591Z,36.00
2019-04-10T22:42:59.513Z,37.43
2019-04-10T22:46:04.616Z,38.17
2019-04-10T22:49:08.494Z,41.70
2019-04-10T22:52:12.283Z,35.30
2019-04-10T22:55:16.186Z,38.30
2019-04-10T22:58:21.109Z,33.97
2019-04-10T23:01:25.034Z,37.00
2019-04-10T23:04:28.861Z,35.03
2019-04-10T23:07:33.635Z,39.40
2019-04-10T23:10:37.459Z,37.40
2019-04-10T23:13:42.497Z,37.57
2019-04-10T23:16:46.463Z,35.40
2019-04-10T23:19:50.344Z,35.63
2019-04-10T23:22:54.824Z,36.47
2019-04-10T23:25:58.704Z,37.07
2019-04-10T23:29:02.534Z,39.47
2019-04-10T23:32:06.394Z,36.93
2019-04-10T23:35:10.289Z,40.00
2019-04-10T23:38:15.296Z,38.50
2019-04-10T23:41:19.121Z,39.20
2019-04-10T23:44:23.015Z,33.80
2019-04-10T23:47:26.839Z,33.80
2019-04-10T23:50:30.708Z,34.43
2019-04-10T23:53:34.524Z,34.13
2019-04-10T23:56:38.383Z,32.90
2019-04-10T23:59:42.637Z,35.27
